Time;durP1;ratioP1;P1;durP2;ratioP2;P2;SDS_P1;SDS_P2;PMS_P1;PMS_P2;Temp;Humidity;BMP_temperature;BMP_pressure;BME280_temperature;BME280_humidity;BME280_pressure;Samples;Min_cycle;Max_cycle;Signal;HPM_P1;HPM_P2
2022/09/19 00:00:52;;;;;;;2.90;1.70;;;16.70;58.70;;;;;;5040472;28;20029;-56
2022/09/19 00:03:18;;;;;;;3.88;1.80;;;16.50;58.90;;;;;;5052914;28;20491;-56
2022/09/19 00:05:43;;;;;;;5.15;2.05;;;16.50;59.10;;;;;;5053362;28;20025;-56
2022/09/19 00:08:09;;;;;;;3.70;1.75;;;16.60;58.80;;;;;;5053376;28;20040;-57
2022/09/19 00:10:42;;;;;;;4.25;2.08;;;16.70;58.90;;;;;;5053576;28;20024;-58
2022/09/19 00:13:08;;;;;;;4.32;1.95;;;16.80;58.80;;;;;;5053155;28;20163;-58
2022/09/19 00:15:46;;;;;;;3.13;1.90;;;16.90;58.20;;;;;;5053209;28;20032;-56
2022/09/19 00:18:12;;;;;;;3.20;1.77;;;16.90;58.00;;;;;;5053264;28;20029;-56
2022/09/19 00:20:43;;;;;;;5.13;1.92;;;17.00;57.80;;;;;;5053329;28;20028;-58
2022/09/19 00:26:01;;;;;;;4.80;2.63;;;17.00;58.50;;;;;;5053055;28;20175;-56
2022/09/19 00:28:27;;;;;;;3.72;2.05;;;16.90;58.90;;;;;;5053092;28;20036;-59
2022/09/19 00:30:55;;;;;;;3.40;2.28;;;16.70;59.00;;;;;;5066219;22;20050;-59
2022/09/19 00:33:25;;;;;;;3.28;2.03;;;16.80;58.80;;;;;;5013106;28;20037;-59
2022/09/19 00:35:54;;;;;;;2.67;1.85;;;16.70;59.10;;;;;;5012976;28;20022;-59
2022/09/19 00:38:21;;;;;;;3.15;2.25;;;16.70;59.30;;;;;;5013334;28;20039;-59
2022/09/19 00:40:47;;;;;;;3.88;2.10;;;16.80;59.20;;;;;;5026784;28;20499;-59
2022/09/19 00:43:14;;;;;;;4.25;2.45;;;16.80;58.90;;;;;;5032872;28;20353;-59
2022/09/19 00:45:40;;;;;;;;;;;16.80;58.30;;;;;;5032838;28;20495;-59
2022/09/19 00:48:07;;;;;;;2.72;2.15;;;16.80;58.30;;;;;;5032788;28;19963;-59
2022/09/19 00:50:33;;;;;;;5.80;2.22;;;16.70;58.10;;;;;;5032594;28;20502;-59
2022/09/19 00:53:06;;;;;;;3.90;2.70;;;16.60;59.10;;;;;;5032601;28;20049;-59
2022/09/19 00:55:32;;;;;;;6.18;2.40;;;16.60;59.10;;;;;;5032773;28;20033;-59
2022/09/19 00:58:05;;;;;;;6.40;2.70;;;16.60;58.90;;;;;;5032380;28;20506;-60
2022/09/19 01:00:33;;;;;;;5.97;2.47;;;16.70;59.00;;;;;;5032042;28;20565;-60
2022/09/19 01:03:00;;;;;;;4.13;2.38;;;16.70;58.90;;;;;;5032060;28;20022;-60
2022/09/19 01:05:33;;;;;;;4.70;2.58;;;16.60;58.90;;;;;;5031394;28;20499;-60
2022/09/19 01:08:20;;;;;;;6.28;2.65;;;16.60;59.00;;;;;;5032634;28;20056;-60
2022/09/19 01:11:06;;;;;;;6.63;3.22;;;16.70;59.50;;;;;;5031204;28;20022;-60
2022/09/19 01:13:45;;;;;;;4.43;2.20;;;16.60;59.70;;;;;;5031726;28;20120;-59
2022/09/19 01:16:48;;;;;;;3.30;2.50;;;16.60;59.60;;;;;;5031615;28;20048;-60
2022/09/19 01:19:36;;;;;;;10.77;2.72;;;16.50;60.50;;;;;;5018081;28;20402;-60
2022/09/19 01:22:23;;;;;;;3.13;2.40;;;16.20;61.80;;;;;;5011520;28;20400;-60
2022/09/19 01:24:55;;;;;;;8.13;2.55;;;15.80;62.20;;;;;;5018930;28;20037;-60
2022/09/19 01:27:33;;;;;;;5.00;2.70;;;15.90;62.00;;;;;;5032010;28;20028;-60
2022/09/19 01:30:06;;;;;;;4.38;2.85;;;16.10;61.90;;;;;;5031561;28;20025;-60
2022/09/19 01:32:42;;;;;;;4.85;2.42;;;16.20;61.10;;;;;;5031566;28;20022;-60
2022/09/19 01:35:12;;;;;;;5.15;2.03;;;16.10;60.90;;;;;;5031903;28;20029;-60
2022/09/19 01:37:53;;;;;;;3.25;2.28;;;16.10;60.40;;;;;;5031889;28;20029;-59
2022/09/19 01:40:21;;;;;;;7.05;3.10;;;16.00;60.60;;;;;;5030534;28;20495;-60
2022/09/19 01:42:58;;;;;;;2.95;2.30;;;16.10;60.40;;;;;;5031376;28;20041;-60
2022/09/19 01:45:39;;;;;;;3.58;2.13;;;16.10;61.90;;;;;;5030312;28;20037;-60
2022/09/19 01:48:11;;;;;;;3.97;2.65;;;16.10;62.00;;;;;;5012239;28;20072;-60
2022/09/19 01:50:50;;;;;;;5.68;2.70;;;16.00;61.80;;;;;;5022875;28;20029;-60
2022/09/19 01:53:47;;;;;;;7.78;3.30;;;15.90;61.90;;;;;;5031793;28;20052;-60
2022/09/19 01:57:04;;;;;;;5.78;2.65;;;15.70;64.00;;;;;;5030201;28;20400;-60
2022/09/19 02:00:11;;;;;;;7.22;3.17;;;15.40;64.90;;;;;;4997983;28;20042;-60
2022/09/19 02:02:43;;;;;;;5.55;2.97;;;15.40;64.00;;;;;;4953739;28;20401;-60
2022/09/19 02:05:55;;;;;;;4.70;2.45;;;15.70;63.60;;;;;;5020112;28;20092;-58
2022/09/19 02:08:51;;;;;;;3.63;2.70;;;15.80;63.00;;;;;;5011953;28;20050;-60
2022/09/19 02:11:19;;;;;;;5.00;3.30;;;15.90;62.40;;;;;;5018146;28;20034;-60
2022/09/19 02:13:57;;;;;;;3.65;2.50;;;15.90;62.10;;;;;;5031270;28;20037;-60
2022/09/19 02:16:33;;;;;;;5.15;2.80;;;16.00;63.40;;;;;;5030183;28;20467;-59
2022/09/19 02:19:06;;;;;;;3.63;2.75;;;15.70;63.60;;;;;;5029362;28;20021;-59
2022/09/19 02:21:56;;;;;;;4.68;3.20;;;15.60;63.70;;;;;;5029777;28;20022;-60
2022/09/19 02:24:27;;;;;;;4.40;2.40;;;15.70;63.70;;;;;;5031119;28;20022;-59
2022/09/19 02:26:59;;;;;;;5.55;3.00;;;15.70;63.70;;;;;;5031626;28;20223;-60
2022/09/19 02:29:30;;;;;;;3.72;2.47;;;15.80;63.20;;;;;;5031147;28;20140;-59
2022/09/19 02:31:57;;;;;;;6.22;3.80;;;15.80;62.70;;;;;;5030933;28;20076;-59
2022/09/19 02:34:23;;;;;;;8.23;3.35;;;15.80;62.60;;;;;;5030949;28;20124;-59
2022/09/19 02:37:01;;;;;;;7.95;4.10;;;15.80;62.40;;;;;;5029596;28;20037;-62
2022/09/19 02:39:29;;;;;;;4.80;2.88;;;15.70;62.70;;;;;;5030053;28;20403;-59
2022/09/19 02:42:28;;;;;;;4.32;3.00;;;15.70;62.70;;;;;;5029635;28;20037;-59
2022/09/19 02:45:11;;;;;;;6.13;3.35;;;15.70;63.40;;;;;;5029627;28;20117;-59
2022/09/19 02:48:01;;;;;;;4.43;3.28;;;15.70;64.60;;;;;;5031200;28;20255;-58
2022/09/19 02:50:47;;;;;;;6.47;3.58;;;15.60;64.60;;;;;;5029913;28;20014;-59
2022/09/19 02:53:18;;;;;;;5.15;3.28;;;15.60;64.00;;;;;;5030138;28;20438;-59
2022/09/19 02:55:52;;;;;;;4.35;3.22;;;15.60;65.50;;;;;;5030870;28;20152;-60
2022/09/19 02:58:21;;;;;;;5.53;3.28;;;15.40;65.10;;;;;;5031150;28;20301;-59
2022/09/19 03:00:52;;;;;;;5.00;3.00;;;15.50;64.60;;;;;;5028673;28;20054;-59
2022/09/19 03:04:18;;;;;;;5.28;2.83;;;15.60;64.30;;;;;;5029988;28;20029;-59
2022/09/19 03:06:56;;;;;;;2.90;2.55;;;15.60;64.30;;;;;;4997634;28;20037;-59
2022/09/19 03:09:27;;;;;;;3.35;2.80;;;15.60;63.80;;;;;;5030974;28;20132;-59
2022/09/19 03:12:25;;;;;;;3.67;2.92;;;15.70;63.80;;;;;;5030482;28;20041;-59
2022/09/19 03:14:58;;;;;;;9.52;3.35;;;15.70;64.20;;;;;;5001678;28;20065;-59
2022/09/19 03:17:32;;;;;;;6.65;4.05;;;15.70;63.60;;;;;;5026416;28;20026;-59
2022/09/19 03:19:59;;;;;;;4.68;3.25;;;15.70;63.90;;;;;;5027913;28;20014;-59
2022/09/19 03:22:25;;;;;;;5.20;3.28;;;15.80;63.70;;;;;;5011924;28;20080;-59
2022/09/19 03:24:51;;;;;;;5.65;3.00;;;15.70;63.70;;;;;;5029440;28;20057;-59
2022/09/19 03:27:17;;;;;;;4.20;3.17;;;15.70;63.80;;;;;;5026574;28;20053;-59
2022/09/19 03:29:42;;;;;;;9.77;3.28;;;15.70;63.80;;;;;;5016525;28;20050;-59
2022/09/19 03:32:08;;;;;;;7.72;3.22;;;15.70;63.90;;;;;;5033732;28;20029;-59
2022/09/19 03:34:34;;;;;;;5.40;3.15;;;15.70;64.10;;;;;;5032628;28;20120;-59
2022/09/19 03:37:00;;;;;;;5.57;3.50;;;15.70;64.00;;;;;;5026739;28;20026;-59
2022/09/19 03:39:26;;;;;;;6.00;3.95;;;15.60;63.90;;;;;;5026286;28;20032;-59
2022/09/19 03:41:52;;;;;;;7.10;4.20;;;15.60;64.10;;;;;;5017341;28;20034;-59
2022/09/19 03:44:19;;;;;;;5.40;4.30;;;15.60;64.20;;;;;;5031581;28;20551;-59
2022/09/19 03:46:46;;;;;;;8.75;4.55;;;15.50;64.20;;;;;;5033863;28;20106;-59
2022/09/19 03:49:12;;;;;;;9.40;5.03;;;15.50;64.50;;;;;;5032765;28;20032;-58
2022/09/19 03:51:37;;;;;;;7.05;4.90;;;15.50;64.70;;;;;;5034048;28;20502;-59
2022/09/19 03:54:03;;;;;;;6.30;4.75;;;15.40;64.60;;;;;;5032378;28;20017;-59
2022/09/19 03:56:29;;;;;;;6.88;4.60;;;15.40;64.60;;;;;;5033924;28;20030;-60
2022/09/19 03:58:55;;;;;;;5.75;4.13;;;15.40;64.80;;;;;;5034026;28;20143;-59
2022/09/19 04:01:21;;;;;;;7.80;3.95;;;15.30;65.10;;;;;;5027492;28;20508;-59
2022/09/19 04:03:47;;;;;;;6.65;4.53;;;15.30;65.40;;;;;;5021665;28;20068;-60
2022/09/19 04:06:13;;;;;;;6.85;4.28;;;15.10;66.80;;;;;;5013922;28;20084;-59
2022/09/19 04:08:39;;;;;;;6.22;4.22;;;14.90;67.40;;;;;;5013920;28;20022;-58
2022/09/19 04:11:05;;;;;;;5.07;3.80;;;14.90;67.50;;;;;;5013962;28;20024;-58
2022/09/19 04:13:33;;;;;;;5.80;4.53;;;14.90;67.80;;;;;;5013911;28;20384;-60
2022/09/19 04:16:00;;;;;;;7.68;4.32;;;14.90;67.10;;;;;;5013710;28;20022;-59
2022/09/19 04:18:25;;;;;;;;;;;15.10;66.70;;;;;;5012666;28;20025;-59
2022/09/19 04:20:51;;;;;;;7.82;3.92;;;15.10;66.50;;;;;;5012667;28;20017;-59
2022/09/19 04:23:17;;;;;;;7.28;3.95;;;15.10;65.80;;;;;;5012378;28;20475;-59
2022/09/19 04:25:46;;;;;;;7.65;4.88;;;15.10;65.60;;;;;;5013590;28;20547;-61
2022/09/19 04:28:13;;;;;;;6.72;4.72;;;15.10;65.60;;;;;;5013786;28;20564;-59
2022/09/19 04:30:40;;;;;;;6.25;4.80;;;15.00;65.70;;;;;;5013328;28;20066;-59
2022/09/19 04:33:11;;;;;;;5.25;4.53;;;15.00;66.10;;;;;;5013465;28;20018;-59
2022/09/19 04:35:37;;;;;;;9.63;4.43;;;14.90;66.20;;;;;;5013298;28;20072;-59
2022/09/19 04:38:06;;;;;;;6.97;4.50;;;15.00;66.50;;;;;;5013548;28;20026;-59
2022/09/19 04:40:46;;;;;;;7.68;4.25;;;14.90;66.50;;;;;;5013311;28;20034;-59
2022/09/19 04:43:14;;;;;;;5.88;4.22;;;15.00;66.60;;;;;;5013324;28;20025;-59
2022/09/19 04:45:44;;;;;;;8.00;4.18;;;15.00;66.50;;;;;;5013126;28;20463;-59
2022/09/19 04:48:12;;;;;;;7.47;4.55;;;15.00;66.60;;;;;;5013145;28;20021;-59
2022/09/19 04:50:38;;;;;;;8.05;4.38;;;15.00;66.50;;;;;;5013022;28;20025;-61
2022/09/19 04:53:04;;;;;;;8.10;4.70;;;14.90;67.30;;;;;;5013104;28;20026;-60
2022/09/19 04:55:30;;;;;;;4.43;4.03;;;14.80;67.90;;;;;;5011682;28;20030;-60
2022/09/19 04:57:57;;;;;;;9.25;4.75;;;14.70;68.20;;;;;;5012960;28;20260;-59
2022/09/19 05:00:39;;;;;;;8.98;4.72;;;14.70;68.50;;;;;;5012895;28;20026;-59
2022/09/19 05:03:11;;;;;;;6.97;4.30;;;14.70;68.40;;;;;;5012987;28;20061;-59
2022/09/19 05:05:50;;;;;;;8.48;4.95;;;14.80;68.10;;;;;;5012719;28;20416;-59
2022/09/19 05:08:19;;;;;;;8.70;4.93;;;14.80;67.70;;;;;;5012910;28;20480;-59
2022/09/19 05:10:48;;;;;;;7.82;4.80;;;14.90;67.40;;;;;;5012802;28;20018;-62
2022/09/19 05:13:14;;;;;;;6.93;4.20;;;14.80;67.20;;;;;;5012762;28;20026;-59
2022/09/19 05:15:41;;;;;;;6.65;5.00;;;14.90;67.30;;;;;;5012537;28;20157;-59
2022/09/19 05:18:10;;;;;;;6.85;4.95;;;14.90;67.40;;;;;;5012660;28;20026;-58
2022/09/19 05:20:36;;;;;;;6.22;5.63;;;14.90;67.70;;;;;;5012626;28;20036;-62
2022/09/19 05:23:02;;;;;;;5.95;4.88;;;14.90;67.70;;;;;;5012630;28;20026;-62
2022/09/19 05:25:29;;;;;;;6.20;4.82;;;14.90;67.70;;;;;;5012352;28;20025;-59
2022/09/19 05:28:04;;;;;;;15.48;5.82;;;14.90;67.70;;;;;;5012503;28;20038;-59
2022/09/19 05:30:30;;;;;;;8.55;5.40;;;14.90;67.80;;;;;;5012310;28;20026;-58
2022/09/19 05:32:57;;;;;;;7.78;5.53;;;14.90;68.40;;;;;;5012363;28;20026;-59
2022/09/19 05:35:23;;;;;;;;;;;14.90;68.10;;;;;;5012707;28;20378;-59
2022/09/19 05:37:49;;;;;;;9.40;5.13;;;14.90;68.20;;;;;;5012431;28;20000;-57
2022/09/19 05:40:15;;;;;;;8.87;5.40;;;14.90;67.90;;;;;;5012215;28;20527;-59
2022/09/19 05:42:42;;;;;;;9.23;5.47;;;14.90;68.10;;;;;;5012452;28;20264;-59
2022/09/19 05:45:09;;;;;;;6.70;5.07;;;14.90;68.20;;;;;;5012069;28;20171;-55
2022/09/19 05:47:35;;;;;;;9.93;5.38;;;14.90;68.30;;;;;;5012152;28;20037;-57
2022/09/19 05:50:01;;;;;;;9.18;4.88;;;14.90;68.60;;;;;;5028926;28;20028;-55
2022/09/19 05:55:11;;;;;;;9.50;6.45;;;15.00;68.80;;;;;;5031776;28;20393;-57
2022/09/19 05:57:36;;;;;;;7.20;6.03;;;15.10;68.80;;;;;;5031910;28;20029;-54
2022/09/19 06:00:03;;;;;;;8.05;5.22;;;15.20;68.90;;;;;;5031089;28;20488;-56
2022/09/19 06:02:29;;;;;;;10.55;5.97;;;15.30;69.00;;;;;;5031803;28;20068;-55
2022/09/19 06:04:54;;;;;;;7.93;6.10;;;15.40;68.90;;;;;;5031383;28;20072;-52
2022/09/19 06:07:23;;;;;;;10.48;6.38;;;15.50;68.70;;;;;;5031825;28;20057;-56
2022/09/19 06:09:52;;;;;;;9.70;6.13;;;15.60;69.00;;;;;;5031974;28;20018;-58
2022/09/19 06:12:18;;;;;;;10.15;6.13;;;15.60;68.90;;;;;;5030558;28;20026;-53
2022/09/19 06:14:44;;;;;;;7.53;6.03;;;15.70;68.80;;;;;;5031498;28;20040;-56
2022/09/19 06:17:11;;;;;;;6.72;5.85;;;15.80;68.80;;;;;;5031693;28;20057;-56
2022/09/19 06:19:37;;;;;;;13.65;5.68;;;15.80;69.00;;;;;;5031641;28;20395;-51
2022/09/19 06:22:05;;;;;;;8.13;6.53;;;15.90;69.20;;;;;;5031619;28;20026;-56
2022/09/19 06:24:30;;;;;;;8.20;6.22;;;15.80;69.50;;;;;;5031373;28;20026;-55
2022/09/19 06:26:57;;;;;;;8.98;6.20;;;15.90;69.90;;;;;;5031633;28;20109;-53
2022/09/19 06:29:22;;;;;;;10.82;6.40;;;16.00;70.00;;;;;;5030583;28;20108;-53
2022/09/19 06:31:48;;;;;;;9.48;6.30;;;16.10;70.30;;;;;;5032003;28;20109;-53
2022/09/19 06:34:17;;;;;;;10.40;6.38;;;16.10;70.80;;;;;;5031309;28;20025;-58
2022/09/19 06:36:44;;;;;;;7.78;6.10;;;16.10;71.50;;;;;;5031544;28;20044;-56
2022/09/19 06:39:10;;;;;;;10.85;6.82;;;16.10;71.80;;;;;;5031603;28;20021;-57
2022/09/19 06:41:36;;;;;;;10.80;6.90;;;16.20;71.70;;;;;;5030829;28;20399;-57
2022/09/19 06:44:02;;;;;;;13.25;6.65;;;16.20;72.10;;;;;;5031125;28;20017;-58
2022/09/19 06:46:33;;;;;;;7.63;6.60;;;16.20;72.10;;;;;;5031434;28;20030;-58
2022/09/19 06:48:59;;;;;;;13.05;6.88;;;16.30;72.30;;;;;;5031304;28;20380;-58
2022/09/19 06:51:25;;;;;;;8.93;5.75;;;16.30;72.20;;;;;;5031281;28;20037;-58
2022/09/19 06:53:50;;;;;;;7.32;6.53;;;16.40;72.00;;;;;;5031235;28;20532;-58
2022/09/19 06:56:16;;;;;;;12.35;7.85;;;16.50;72.90;;;;;;5031232;28;20037;-56
2022/09/19 06:58:41;;;;;;;8.82;6.70;;;16.60;72.40;;;;;;5031197;28;20031;-58
2022/09/19 07:01:07;;;;;;;8.30;7.25;;;16.60;72.40;;;;;;5031153;28;20029;-56
2022/09/19 07:03:35;;;;;;;13.05;7.20;;;16.70;72.40;;;;;;5032816;28;20029;-58
2022/09/19 07:06:01;;;;;;;11.20;7.50;;;16.80;72.90;;;;;;5034709;28;20025;-59
2022/09/19 07:08:27;;;;;;;9.43;7.10;;;16.80;72.60;;;;;;5035041;28;20028;-59
2022/09/19 07:10:55;;;;;;;11.93;7.95;;;17.00;72.20;;;;;;5034726;28;20067;-59
2022/09/19 07:13:21;;;;;;;11.05;7.53;;;17.00;71.80;;;;;;5034711;28;20093;-58
2022/09/19 07:15:47;;;;;;;10.77;8.15;;;17.10;71.70;;;;;;5034624;28;20445;-59
2022/09/19 07:30:08;;;;;;;10.82;7.18;;;17.20;71.30;;;;;;5088643;27;20370;-55
2022/09/19 07:32:34;;;;;;;7.35;6.40;;;18.00;68.10;;;;;;5087421;28;20127;-55
2022/09/19 07:34:59;;;;;;;10.38;6.68;;;17.90;68.20;;;;;;5089223;28;20095;-55
2022/09/19 07:37:25;;;;;;;13.45;7.22;;;17.90;68.40;;;;;;5088738;28;20481;-56
2022/09/19 07:39:52;;;;;;;10.20;6.53;;;17.90;68.70;;;;;;5088615;28;20063;-57
2022/09/19 07:42:20;;;;;;;15.40;8.27;;;18.00;68.70;;;;;;5109895;22;20033;-59
2022/09/19 07:44:46;;;;;;;10.55;6.75;;;18.00;68.70;;;;;;5088596;28;20025;-57
2022/09/19 07:47:26;;;;;;;12.23;7.72;;;18.00;69.70;;;;;;5088477;28;20016;-60
2022/09/19 07:49:54;;;;;;;10.20;8.02;;;18.00;69.30;;;;;;5088501;28;20032;-60
2022/09/19 07:52:20;;;;;;;10.48;6.70;;;18.10;69.60;;;;;;5088594;28;20020;-60
2022/09/19 07:54:46;;;;;;;9.15;7.18;;;18.10;69.00;;;;;;5088763;28;20020;-60
2022/09/19 07:57:12;;;;;;;9.98;7.03;;;18.10;68.80;;;;;;5088596;28;20017;-57
2022/09/19 07:59:38;;;;;;;8.85;6.93;;;18.20;68.60;;;;;;5054203;28;20036;-61
2022/09/19 08:02:08;;;;;;;8.20;6.20;;;18.30;68.20;;;;;;5050144;28;20028;-59
2022/09/19 08:04:34;;;;;;;11.75;6.60;;;18.40;67.70;;;;;;5068356;28;20029;-60
2022/09/19 08:07:00;;;;;;;13.40;7.90;;;18.50;67.50;;;;;;5068333;28;20536;-60
2022/09/19 08:09:26;;;;;;;10.35;7.38;;;18.50;68.00;;;;;;5067975;28;20029;-56
2022/09/19 08:11:52;;;;;;;8.88;6.72;;;18.60;67.10;;;;;;5067994;28;20368;-54
2022/09/19 08:14:17;;;;;;;9.75;6.15;;;18.60;67.00;;;;;;5067949;28;20033;-60
2022/09/19 08:16:43;;;;;;;8.80;5.63;;;18.60;66.50;;;;;;5050040;28;20037;-60
2022/09/19 08:19:09;;;;;;;7.95;5.50;;;18.60;66.40;;;;;;5067611;28;20028;-60
2022/09/19 08:21:35;;;;;;;8.80;6.38;;;18.70;66.30;;;;;;5049987;28;20044;-59
2022/09/19 08:24:01;;;;;;;12.73;6.22;;;18.80;66.50;;;;;;5067697;28;20105;-60
2022/09/19 08:26:26;;;;;;;8.43;5.95;;;18.90;65.60;;;;;;5067680;28;20364;-61
2022/09/19 08:28:52;;;;;;;8.18;6.07;;;19.00;65.50;;;;;;5049050;28;20029;-61
2022/09/19 08:31:18;;;;;;;12.05;6.78;;;19.10;65.40;;;;;;5053889;28;20035;-61
2022/09/19 08:33:45;;;;;;;11.82;6.05;;;19.30;65.30;;;;;;5059550;28;20035;-60
2022/09/19 08:36:10;;;;;;;;;;;19.40;64.70;;;;;;5054792;28;20033;-60
2022/09/19 08:38:36;;;;;;;11.07;6.72;;;19.40;64.70;;;;;;5054080;28;19908;-61
2022/09/19 08:41:18;;;;;;;11.98;7.18;;;19.50;64.70;;;;;;5054403;28;20535;-60
2022/09/19 08:43:51;;;;;;;8.45;5.75;;;19.70;63.80;;;;;;5053981;28;20029;-61
2022/09/19 08:46:29;;;;;;;9.40;6.78;;;19.80;62.90;;;;;;5054095;28;20029;-59
2022/09/19 08:49:22;;;;;;;18.85;7.47;;;19.90;62.60;;;;;;5054037;28;20057;-59
2022/09/19 08:52:08;;;;;;;9.20;5.68;;;20.00;62.70;;;;;;5053882;28;20095;-61
2022/09/19 08:54:40;;;;;;;9.35;5.90;;;20.10;60.80;;;;;;5053981;28;20032;-60
2022/09/19 08:57:16;;;;;;;7.15;3.80;;;20.30;59.80;;;;;;5054069;28;20034;-59
2022/09/19 08:59:44;;;;;;;8.85;3.83;;;20.30;56.20;;;;;;5053605;28;20021;-60
2022/09/19 09:02:29;;;;;;;8.07;4.50;;;20.40;56.50;;;;;;5035786;28;20407;-61
2022/09/19 09:04:55;;;;;;;7.90;4.32;;;20.40;57.40;;;;;;5053685;28;20439;-60
2022/09/19 09:07:29;;;;;;;9.88;4.15;;;20.60;56.80;;;;;;5053754;28;20102;-60
2022/09/19 09:10:13;;;;;;;12.35;5.43;;;20.70;55.90;;;;;;5053588;28;20021;-61
2022/09/19 09:13:01;;;;;;;11.52;5.72;;;20.70;56.90;;;;;;5053466;28;20044;-60
2022/09/19 09:15:39;;;;;;;6.50;4.88;;;20.80;56.50;;;;;;5053536;28;20028;-61
2022/09/19 09:18:35;;;;;;;8.77;5.35;;;20.80;57.00;;;;;;5053445;28;20041;-60
2022/09/19 09:21:16;;;;;;;9.48;4.93;;;21.00;54.80;;;;;;5053320;28;20021;-59
2022/09/19 09:23:48;;;;;;;9.25;5.57;;;21.00;55.30;;;;;;5035402;28;20078;-60
2022/09/19 09:26:23;;;;;;;7.30;4.93;;;21.00;55.30;;;;;;5053364;28;20433;-60
2022/09/19 09:28:52;;;;;;;7.82;4.88;;;21.10;56.00;;;;;;5053110;28;20112;-60
2022/09/19 09:31:41;;;;;;;7.65;5.30;;;21.20;56.20;;;;;;5053206;28;20036;-60
2022/09/19 09:34:18;;;;;;;4.10;3.70;;;21.30;55.40;;;;;;5053240;28;20033;-59
2022/09/19 09:37:21;;;;;;;5.50;4.30;;;21.30;54.40;;;;;;5053225;28;20021;-60
2022/09/19 09:40:00;;;;;;;7.35;4.45;;;21.30;55.40;;;;;;5022116;28;20033;-60
2022/09/19 09:42:46;;;;;;;5.28;4.40;;;21.50;53.10;;;;;;5051958;28;20051;-60
2022/09/19 09:45:15;;;;;;;7.57;4.40;;;21.50;54.30;;;;;;5036142;28;20021;-60
2022/09/19 09:47:55;;;;;;;8.30;4.45;;;21.60;54.30;;;;;;5053002;28;20044;-60
2022/09/19 09:50:50;;;;;;;5.85;3.50;;;21.70;51.80;;;;;;5052648;28;20032;-59
2022/09/19 09:53:46;;;;;;;6.93;3.17;;;21.80;51.30;;;;;;5034899;28;20049;-60
2022/09/19 09:56:14;;;;;;;7.20;3.40;;;21.90;50.30;;;;;;5052883;28;20029;-62
2022/09/19 09:58:55;;;;;;;3.10;2.58;;;22.00;50.00;;;;;;5052411;28;20064;-60
2022/09/19 10:04:33;;;;;;;5.88;2.53;;;22.20;47.00;;;;;;5052796;28;20040;-62
2022/09/19 10:07:31;;;;;;;5.38;2.42;;;22.40;44.80;;;;;;5052581;28;20104;-56
2022/09/19 10:10:08;;;;;;;4.03;2.50;;;22.50;46.90;;;;;;5052270;28;20471;-51
2022/09/19 10:13:02;;;;;;;5.40;2.40;;;22.50;44.00;;;;;;5052466;28;20498;-54
2022/09/19 10:15:29;;;;;;;4.40;2.38;;;22.60;44.00;;;;;;5052335;28;20025;-56
2022/09/19 10:18:09;;;;;;;2.83;2.05;;;22.60;43.80;;;;;;5052636;28;20364;-54
2022/09/19 10:20:38;;;;;;;3.90;2.10;;;22.60;41.80;;;;;;5052322;28;20491;-55
2022/09/19 10:23:11;;;;;;;4.18;2.28;;;22.60;43.70;;;;;;5052393;28;20044;-54
2022/09/19 10:25:37;;;;;;;3.83;2.47;;;22.70;43.40;;;;;;5052346;28;20025;-58
2022/09/19 10:28:29;;;;;;;5.38;2.25;;;22.70;43.10;;;;;;5052280;28;20024;-54
2022/09/19 10:30:58;;;;;;;4.35;2.00;;;22.70;40.60;;;;;;5052241;28;20036;-54
2022/09/19 10:33:39;;;;;;;5.53;2.40;;;22.70;41.50;;;;;;5034208;28;20025;-56
2022/09/19 10:36:15;;;;;;;6.38;2.45;;;22.70;41.80;;;;;;5052463;28;20467;-56
2022/09/19 10:38:49;;;;;;;2.90;2.22;;;22.70;42.00;;;;;;5051926;28;20033;-57
2022/09/19 10:41:20;;;;;;;4.78;2.63;;;22.80;41.40;;;;;;5034164;28;20415;-55
2022/09/19 10:43:50;;;;;;;12.60;2.97;;;22.80;41.50;;;;;;5051875;28;20029;-55
2022/09/19 10:46:21;;;;;;;5.47;3.50;;;22.90;41.50;;;;;;5052061;28;20090;-55
2022/09/19 10:48:57;;;;;;;3.42;2.97;;;23.00;41.40;;;;;;5051620;28;20475;-51
2022/09/19 10:51:31;;;;;;;3.92;2.15;;;23.10;39.70;;;;;;5051540;28;20564;-52
2022/09/19 10:53:58;;;;;;;6.38;2.42;;;23.10;40.60;;;;;;5054818;28;20538;-52
2022/09/19 10:56:27;;;;;;;2.83;2.20;;;23.20;40.80;;;;;;5052010;28;20031;-49
2022/09/19 10:59:11;;;;;;;4.85;2.60;;;23.20;40.50;;;;;;5048081;28;20123;-54
2022/09/19 11:01:38;;;;;;;6.32;2.83;;;23.30;38.70;;;;;;5059791;28;20478;-54
2022/09/19 11:04:23;;;;;;;;;;;23.40;38.50;;;;;;5053970;28;20023;-52
2022/09/19 11:06:56;;;;;;;8.45;2.53;;;23.40;37.50;;;;;;5047627;28;19909;-54
2022/09/19 11:09:27;;;;;;;4.13;2.80;;;23.40;40.20;;;;;;5068564;28;20028;-49
2022/09/19 11:12:09;;;;;;;4.47;2.88;;;23.40;37.20;;;;;;5070315;28;20029;-56
2022/09/19 11:14:40;;;;;;;8.52;6.60;;;23.50;39.50;;;;;;5036836;28;20033;-65
2022/09/19 11:17:24;;;;;;;521.05;452.40;;;23.60;39.20;;;;;;5060278;28;20028;-62
2022/09/19 11:20:16;;;;;;;9.77;8.13;;;23.60;39.10;;;;;;5060862;28;20533;-62
2022/09/19 11:23:16;;;;;;;6.60;3.17;;;23.70;37.70;;;;;;5057699;28;20025;-61
2022/09/19 11:26:03;;;;;;;5.85;2.40;;;23.70;34.60;;;;;;5060941;28;20055;-62
2022/09/19 11:29:12;;;;;;;3.40;2.80;;;23.80;37.40;;;;;;5061061;28;20076;-54
2022/09/19 11:32:07;;;;;;;4.53;2.90;;;23.90;35.80;;;;;;5062146;28;20654;-62
2022/09/19 11:34:41;;;;;;;4.90;2.90;;;23.90;34.20;;;;;;5059074;28;20043;-63
2022/09/19 11:37:21;;;;;;;3.95;2.67;;;23.90;34.90;;;;;;5045856;28;20101;-61
2022/09/19 11:39:50;;;;;;;4.70;2.85;;;24.00;34.80;;;;;;5064036;28;20033;-63
2022/09/19 11:42:42;;;;;;;2.60;2.38;;;24.10;34.40;;;;;;5061289;28;20025;-62
2022/09/19 11:45:18;;;;;;;6.32;3.08;;;24.20;34.00;;;;;;5044853;28;20562;-62
2022/09/19 11:48:05;;;;;;;3.75;2.53;;;24.30;33.60;;;;;;5070557;28;20094;-62
2022/09/19 11:50:32;;;;;;;3.83;2.33;;;24.30;32.10;;;;;;5055295;28;20033;-62
2022/09/19 11:53:23;;;;;;;3.97;2.00;;;24.40;32.20;;;;;;5043958;28;20029;-62
2022/09/19 11:56:24;;;;;;;3.42;2.17;;;24.40;32.70;;;;;;5055496;28;20363;-62
2022/09/19 11:59:02;;;;;;;2.10;1.83;;;24.50;31.20;;;;;;5070920;28;20043;-63
2022/09/19 12:01:36;;;;;;;;;;;24.50;33.00;;;;;;5071620;28;20029;-62
2022/09/19 12:04:39;;;;;;;3.72;1.50;;;24.50;29.80;;;;;;5071027;28;20395;-62
2022/09/19 12:07:14;;;;;;;2.22;1.85;;;24.60;27.70;;;;;;5060234;28;20025;-62
2022/09/19 12:09:45;;;;;;;2.00;1.48;;;24.70;28.70;;;;;;5036749;28;20037;-62
2022/09/19 12:12:18;;;;;;;2.28;2.00;;;24.80;26.60;;;;;;5054554;28;20025;-62
2022/09/19 12:15:22;;;;;;;3.42;1.67;;;24.70;29.30;;;;;;5036870;28;20078;-62
2022/09/19 12:18:07;;;;;;;3.50;1.90;;;24.80;27.00;;;;;;5015489;28;20036;-63
2022/09/19 12:20:45;;;;;;;2.38;1.73;;;24.80;28.00;;;;;;5074664;28;20457;-62
2022/09/19 12:26:09;;;;;;;3.13;2.80;;;24.90;28.60;;;;;;5068550;28;20063;-62
2022/09/19 12:28:51;;;;;;;3.17;2.50;;;24.90;28.50;;;;;;5045017;28;20028;-62
2022/09/19 12:31:22;;;;;;;3.10;2.17;;;25.00;28.80;;;;;;5056244;28;20029;-62
2022/09/19 12:33:55;;;;;;;3.65;2.67;;;25.00;27.30;;;;;;5074456;28;20035;-62
2022/09/19 12:36:50;;;;;;;4.88;2.47;;;25.10;28.20;;;;;;5066219;28;20119;-61
2022/09/19 12:39:48;;;;;;;4.15;2.25;;;25.20;27.80;;;;;;5069438;28;20117;-62
2022/09/19 12:42:44;;;;;;;2.10;1.90;;;25.40;28.80;;;;;;5043652;28;20231;-62
2022/09/19 12:45:24;;;;;;;2.58;2.25;;;25.40;29.50;;;;;;5054121;28;20066;-62
2022/09/19 12:48:22;;;;;;;4.20;2.42;;;25.60;28.30;;;;;;5074036;28;20062;-62
2022/09/19 12:50:50;;;;;;;4.77;1.70;;;25.80;27.70;;;;;;5072241;28;20431;-62
2022/09/19 12:53:22;;;;;;;3.80;1.98;;;25.90;27.30;;;;;;5058017;28;20104;-62
2022/09/19 12:55:57;;;;;;;4.35;2.53;;;26.00;27.10;;;;;;5070624;28;20106;-62
2022/09/19 12:58:26;;;;;;;3.10;2.13;;;26.10;27.60;;;;;;5053786;28;20025;-61
2022/09/19 13:01:12;;;;;;;3.95;2.15;;;26.20;26.80;;;;;;5038266;28;20063;-55
2022/09/19 13:03:44;;;;;;;3.80;1.48;;;26.30;28.10;;;;;;5072060;28;20017;-55
2022/09/19 13:06:18;;;;;;;1.65;1.40;;;26.10;27.70;;;;;;5054276;28;20389;-55
2022/09/19 13:09:05;;;;;;;2.25;1.50;;;26.10;25.10;;;;;;5070990;28;20090;-56
2022/09/19 13:11:43;;;;;;;8.13;1.70;;;26.30;26.20;;;;;;5036125;28;20106;-58
2022/09/19 13:14:17;;;;;;;1.92;1.73;;;26.60;25.20;;;;;;5053635;28;20021;-59
2022/09/19 13:25:16;;;;;;;5.65;2.90;;;28.40;26.70;;;;;;5073852;28;20166;-60
2022/09/19 13:27:45;;;;;;;5.60;2.58;;;28.70;24.70;;;;;;5037278;28;20025;-58
2022/09/19 13:30:48;;;;;;;10.57;6.60;;;28.80;25.30;;;;;;5066322;28;20024;-56
2022/09/19 13:33:35;;;;;;;6.03;5.28;;;29.30;25.40;;;;;;5073117;28;20037;-57
2022/09/19 13:36:09;;;;;;;4.38;2.72;;;30.70;25.70;;;;;;5066403;28;20028;-57
2022/09/19 13:38:48;;;;;;;2.55;2.35;;;32.10;24.30;;;;;;5053112;28;20033;-58
2022/09/19 13:41:21;;;;;;;3.33;3.00;;;33.10;23.20;;;;;;5056608;28;20024;-58
2022/09/19 13:44:03;;;;;;;3.85;2.10;;;34.20;22.30;;;;;;5063302;28;20032;-59
2022/09/19 13:46:53;;;;;;;4.28;2.30;;;35.20;22.00;;;;;;5061871;28;20441;-58
2022/09/19 13:49:31;;;;;;;3.78;2.55;;;36.50;21.40;;;;;;5056326;23;20013;-60
2022/09/19 13:52:07;;;;;;;10.52;7.70;;;37.30;20.50;;;;;;5071844;28;20039;-60
2022/09/19 13:54:50;;;;;;;1.98;1.80;;;38.60;21.10;;;;;;5054999;28;20020;-60